createdAt,value
2017-11-18T00:01:16.659Z,59.74
2017-11-18T00:02:55.457Z,59.76
2017-11-18T00:04:35.191Z,59.78
2017-11-18T00:06:13.647Z,59.81
2017-11-18T00:07:53.439Z,59.85
2017-11-18T00:09:36.212Z,59.91
2017-11-18T00:11:15.538Z,59.92
2017-11-18T00:12:56.139Z,59.93
2017-11-18T00:14:36.767Z,59.92
2017-11-18T00:16:20.924Z,59.92
2017-11-18T00:17:59.837Z,59.92
2017-11-18T00:19:38.624Z,59.94
2017-11-18T00:21:19.427Z,59.97
2017-11-18T00:22:58.417Z,60.00
2017-11-18T00:24:38.121Z,60.02
2017-11-18T00:26:16.951Z,60.02
2017-11-18T00:27:55.023Z,60.02
2017-11-18T00:29:34.047Z,60.02
2017-11-18T00:31:20.111Z,60.01
2017-11-18T00:33:01.435Z,60.03
2017-11-18T00:34:39.738Z,60.04
2017-11-18T00:36:19.961Z,60.05
2017-11-18T00:37:58.650Z,60.06
2017-11-18T00:39:37.075Z,60.08
2017-11-18T00:41:15.454Z,60.07
2017-11-18T00:42:55.518Z,60.08
2017-11-18T00:44:34.757Z,60.09
2017-11-18T00:46:12.773Z,60.11
2017-11-18T00:47:51.075Z,60.12
2017-11-18T00:49:29.574Z,60.13
2017-11-18T00:51:07.665Z,60.12
2017-11-18T00:52:45.973Z,60.12
2017-11-18T00:54:24.383Z,60.12
2017-11-18T00:56:16.271Z,60.12
2017-11-18T00:57:54.298Z,60.11
2017-11-18T00:59:32.490Z,60.13
2017-11-18T01:01:11.283Z,60.10
2017-11-18T01:02:51.679Z,60.12
2017-11-18T01:04:32.182Z,60.14
2017-11-18T01:06:10.289Z,60.17
2017-11-18T01:07:49.778Z,60.19
2017-11-18T01:09:29.683Z,60.20
2017-11-18T01:11:07.675Z,60.22
2017-11-18T01:12:46.062Z,60.24
2017-11-18T01:14:25.250Z,60.26
2017-11-18T01:16:04.553Z,60.27
2017-11-18T01:17:43.057Z,60.28
2017-11-18T01:19:21.387Z,60.29
2017-11-18T01:21:00.046Z,60.31
2017-11-18T01:22:38.462Z,60.33
2017-11-18T01:24:27.641Z,60.36
2017-11-18T01:26:06.042Z,60.37
2017-11-18T01:27:45.668Z,60.38
2017-11-18T01:29:22.875Z,60.38
2017-11-18T01:31:03.441Z,60.39
2017-11-18T01:32:41.658Z,60.37
2017-11-18T01:34:20.345Z,60.38
2017-11-18T01:35:59.562Z,60.42
2017-11-18T01:37:38.199Z,60.43
2017-11-18T01:39:16.836Z,60.47
2017-11-18T01:40:55.835Z,60.49
2017-11-18T01:42:36.944Z,60.51
2017-11-18T01:44:17.154Z,60.52
2017-11-18T01:45:55.959Z,60.55
2017-11-18T01:47:36.049Z,60.54
2017-11-18T01:49:15.168Z,60.57
2017-11-18T01:50:53.856Z,60.60
2017-11-18T01:52:32.266Z,60.62
2017-11-18T01:54:11.670Z,60.61
2017-11-18T01:55:51.650Z,60.59
2017-11-18T01:57:32.072Z,60.58
2017-11-18T01:59:13.254Z,60.58
2017-11-18T02:00:51.849Z,60.59
2017-11-18T02:02:42.658Z,60.60
2017-11-18T02:04:21.271Z,60.60
2017-11-18T02:06:00.773Z,60.61
2017-11-18T02:07:39.886Z,60.63
2017-11-18T02:09:18.450Z,60.65
2017-11-18T02:10:56.754Z,60.67
2017-11-18T02:12:36.357Z,60.69
2017-11-18T02:14:13.849Z,60.70
2017-11-18T02:15:53.960Z,60.70
2017-11-18T02:17:32.477Z,60.70
2017-11-18T02:19:11.285Z,60.67
2017-11-18T02:20:50.182Z,60.65
2017-11-18T02:22:29.518Z,60.65
2017-11-18T02:24:09.983Z,60.63
2017-11-18T02:25:54.093Z,60.65
2017-11-18T02:27:32.513Z,60.66
2017-11-18T02:29:11.304Z,60.67
2017-11-18T02:30:50.403Z,60.72
2017-11-18T02:32:29.906Z,60.74
2017-11-18T02:34:09.414Z,60.76
2017-11-18T02:35:48.012Z,60.77
2017-11-18T02:37:26.404Z,60.79
2017-11-18T02:39:06.327Z,60.81
2017-11-18T02:40:44.534Z,60.82
2017-11-18T02:42:23.819Z,60.86
2017-11-18T02:44:02.437Z,60.88
2017-11-18T02:45:42.625Z,60.89
2017-11-18T02:47:25.752Z,60.91
2017-11-18T02:49:06.970Z,60.91
2017-11-18T02:50:46.324Z,60.90
2017-11-18T02:52:25.039Z,60.89
2017-11-18T02:54:03.619Z,60.91
2017-11-18T02:55:42.820Z,60.93
2017-11-18T02:57:21.613Z,60.97
2017-11-18T02:59:01.021Z,60.99
2017-11-18T03:00:40.829Z,61.00
2017-11-18T03:02:24.672Z,61.02
2017-11-18T03:04:03.321Z,61.03
2017-11-18T03:05:42.725Z,61.04
2017-11-18T03:07:31.546Z,61.04
2017-11-18T03:09:10.037Z,61.04
2017-11-18T03:10:48.539Z,61.04
2017-11-18T03:12:26.620Z,61.07
2017-11-18T03:14:04.832Z,61.12
2017-11-18T03:15:43.538Z,61.15
2017-11-18T03:17:20.314Z,61.17
2017-11-18T03:18:57.399Z,61.14
2017-11-18T03:20:34.625Z,61.14
2017-11-18T03:22:11.678Z,61.15
2017-11-18T03:23:50.728Z,61.14
2017-11-18T03:25:29.534Z,61.16
2017-11-18T03:27:09.726Z,61.19
2017-11-18T03:28:48.949Z,61.22
2017-11-18T03:30:28.325Z,61.22
2017-11-18T03:32:07.129Z,61.24
2017-11-18T03:33:45.327Z,61.25
2017-11-18T03:35:25.628Z,61.29
2017-11-18T03:37:06.127Z,61.34
2017-11-18T03:38:46.426Z,61.35
2017-11-18T03:40:24.818Z,61.37
2017-11-18T03:42:03.228Z,61.37
2017-11-18T03:43:43.121Z,61.39
2017-11-18T03:45:22.416Z,61.42
2017-11-18T03:47:01.139Z,61.44
2017-11-18T03:48:41.137Z,61.47
2017-11-18T03:50:17.884Z,61.52
2017-11-18T03:51:56.524Z,61.57
2017-11-18T03:53:35.024Z,61.56
2017-11-18T03:55:13.757Z,61.56
2017-11-18T03:56:53.221Z,61.58
2017-11-18T03:58:32.239Z,61.59
2017-11-18T04:00:16.142Z,61.58
2017-11-18T04:01:55.438Z,61.58
2017-11-18T04:03:34.743Z,61.61
2017-11-18T04:05:19.764Z,61.65
2017-11-18T04:06:58.139Z,61.67
2017-11-18T04:08:37.549Z,61.66
2017-11-18T04:10:16.557Z,61.66
2017-11-18T04:11:55.558Z,61.66
2017-11-18T04:13:33.859Z,61.67
2017-11-18T04:15:15.863Z,61.69
2017-11-18T04:16:55.681Z,61.72
2017-11-18T04:18:35.163Z,61.73
2017-11-18T04:20:13.157Z,61.73
2017-11-18T04:21:54.863Z,61.74
2017-11-18T04:23:33.879Z,61.77
2017-11-18T04:25:12.887Z,61.78
2017-11-18T04:26:51.660Z,61.81
2017-11-18T04:28:30.164Z,61.81
2017-11-18T04:30:10.672Z,61.83
2017-11-18T04:31:50.267Z,61.90
2017-11-18T04:33:29.099Z,61.96
2017-11-18T04:35:08.758Z,61.99
2017-11-18T04:36:47.466Z,62.01
2017-11-18T04:38:26.160Z,62.05
2017-11-18T04:40:06.952Z,62.12
2017-11-18T04:41:47.666Z,62.17
2017-11-18T04:43:38.065Z,62.18
2017-11-18T04:45:18.769Z,62.17
2017-11-18T04:46:58.874Z,62.15
2017-11-18T04:48:38.562Z,62.15
2017-11-18T04:50:16.975Z,62.17
2017-11-18T04:51:57.065Z,62.20
2017-11-18T04:53:35.584Z,62.23
2017-11-18T04:56:46.841Z,62.28
2017-11-18T04:58:23.217Z,62.26
2017-11-18T05:00:00.204Z,62.26
2017-11-18T05:01:37.044Z,62.31
2017-11-18T05:03:13.305Z,62.33
2017-11-18T05:04:49.448Z,62.34
2017-11-18T05:06:25.720Z,62.38
2017-11-18T05:08:02.226Z,62.41
2017-11-18T05:09:38.574Z,62.41
2017-11-18T05:11:14.906Z,62.40
2017-11-18T05:12:51.092Z,62.42
2017-11-18T05:14:28.137Z,62.49
2017-11-18T05:16:05.389Z,62.55
2017-11-18T05:17:42.221Z,62.60
2017-11-18T05:19:18.723Z,62.63
2017-11-18T05:20:55.297Z,62.66
2017-11-18T05:22:31.605Z,62.67
2017-11-18T05:24:08.011Z,62.66
2017-11-18T05:25:44.459Z,62.66
2017-11-18T05:27:21.263Z,62.70
2017-11-18T05:28:57.919Z,62.72
2017-11-18T05:30:35.570Z,62.68
2017-11-18T05:32:11.981Z,62.66
2017-11-18T05:33:49.146Z,62.63
2017-11-18T05:35:26.237Z,62.62
2017-11-18T05:37:03.282Z,62.65
2017-11-18T05:38:39.961Z,62.67
2017-11-18T05:40:16.764Z,62.63
2017-11-18T05:41:53.264Z,62.64
2017-11-18T05:43:30.196Z,62.68
2017-11-18T05:45:08.273Z,62.72
2017-11-18T05:48:24.383Z,62.80
2017-11-18T05:50:01.078Z,62.81
2017-11-18T05:51:37.573Z,62.83
2017-11-18T05:53:19.489Z,62.85
2017-11-18T05:54:55.673Z,62.87
2017-11-18T05:56:32.012Z,62.85
2017-11-18T05:58:08.303Z,62.81
2017-11-18T05:59:45.831Z,62.82
2017-11-18T06:01:24.458Z,62.87
2017-11-18T06:03:00.793Z,62.88
2017-11-18T06:04:37.140Z,62.90
2017-11-18T06:06:16.149Z,62.91
2017-11-18T06:07:52.410Z,62.94
2017-11-18T06:09:28.874Z,62.95
2017-11-18T06:11:06.534Z,62.94
2017-11-18T06:12:42.989Z,62.97
2017-11-18T06:14:19.179Z,63.00
2017-11-18T06:15:55.842Z,63.02
2017-11-18T06:17:32.763Z,63.02
2017-11-18T06:19:09.497Z,63.03
2017-11-18T06:20:45.781Z,63.04
2017-11-18T06:22:22.159Z,63.04
2017-11-18T06:23:59.425Z,63.01
2017-11-18T06:25:36.405Z,63.02
2017-11-18T06:27:13.021Z,63.03
2017-11-18T06:28:49.782Z,63.06
2017-11-18T06:30:27.401Z,63.09
2017-11-18T06:32:04.352Z,63.12
2017-11-18T06:33:40.565Z,63.11
2017-11-18T06:35:16.945Z,63.13
2017-11-18T06:36:53.194Z,63.17
2017-11-18T06:38:30.232Z,63.16
2017-11-18T06:40:06.562Z,63.16
2017-11-18T06:41:43.305Z,63.17
2017-11-18T06:43:19.493Z,63.22
2017-11-18T06:44:55.962Z,63.20
2017-11-18T06:46:32.482Z,63.17
2017-11-18T06:48:11.004Z,63.17
2017-11-18T06:49:48.251Z,63.19
2017-11-18T06:51:25.670Z,63.22
2017-11-18T06:53:01.999Z,63.22
2017-11-18T06:54:38.350Z,63.18
2017-11-18T06:56:14.724Z,63.19
2017-11-18T06:57:51.918Z,63.21
2017-11-18T06:59:28.936Z,63.22
2017-11-18T07:01:05.425Z,63.23
2017-11-18T07:02:42.457Z,63.22
2017-11-18T07:04:19.007Z,63.24
2017-11-18T07:05:55.586Z,63.24
2017-11-18T07:07:31.801Z,63.24
2017-11-18T07:09:08.067Z,63.24
2017-11-18T07:10:44.765Z,63.23
2017-11-18T07:12:21.306Z,63.24
2017-11-18T07:13:59.545Z,63.24
2017-11-18T07:15:36.022Z,63.24
2017-11-18T07:17:12.505Z,63.26
2017-11-18T07:18:49.039Z,63.24
2017-11-18T07:20:25.180Z,63.24
2017-11-18T07:22:01.354Z,63.21
2017-11-18T07:23:38.586Z,63.24
2017-11-18T07:25:19.702Z,63.25
2017-11-18T07:26:59.010Z,63.27
2017-11-18T07:28:35.383Z,63.23
2017-11-18T07:30:12.062Z,63.24
2017-11-18T07:31:50.782Z,63.26
2017-11-18T07:33:27.179Z,63.26
2017-11-18T07:35:04.279Z,63.26
2017-11-18T07:36:40.771Z,63.25
2017-11-18T07:38:17.319Z,63.27
2017-11-18T07:39:53.514Z,63.30
2017-11-18T07:41:30.859Z,63.32
2017-11-18T07:43:07.619Z,63.32
2017-11-18T07:44:44.433Z,63.32
2017-11-18T07:46:21.054Z,63.30
2017-11-18T07:47:57.438Z,63.29
2017-11-18T07:49:34.486Z,63.31
2017-11-18T07:51:10.758Z,63.28
2017-11-18T07:52:47.374Z,63.26
2017-11-18T07:54:23.965Z,63.26
2017-11-18T07:56:00.821Z,63.23
2017-11-18T07:57:37.327Z,63.25
2017-11-18T07:59:13.910Z,63.28
2017-11-18T08:00:50.493Z,63.30
2017-11-18T08:02:26.976Z,63.32
2017-11-18T08:04:03.186Z,63.31
2017-11-18T08:05:42.750Z,63.29
2017-11-18T08:07:20.601Z,63.31
2017-11-18T08:08:57.296Z,63.31
2017-11-18T08:10:35.101Z,63.31
2017-11-18T08:12:11.321Z,63.32
2017-11-18T08:13:48.700Z,63.32
2017-11-18T08:15:27.206Z,63.31
2017-11-18T08:17:03.688Z,63.31
2017-11-18T08:18:40.080Z,63.28
2017-11-18T08:20:17.429Z,63.27
2017-11-18T08:21:54.047Z,63.27
2017-11-18T08:23:31.280Z,63.28
2017-11-18T08:25:08.100Z,63.25
2017-11-18T08:26:44.786Z,63.25
2017-11-18T08:28:21.113Z,63.27
2017-11-18T08:29:58.219Z,63.24
2017-11-18T08:31:34.596Z,63.25
2017-11-18T08:33:11.423Z,63.23
2017-11-18T08:34:48.860Z,63.26
2017-11-18T08:36:37.462Z,63.26
2017-11-18T08:38:14.419Z,63.26
2017-11-18T08:39:50.685Z,63.27
2017-11-18T08:41:27.645Z,63.28
2017-11-18T08:43:04.389Z,63.28
2017-11-18T08:44:41.543Z,63.30
2017-11-18T08:46:18.802Z,63.27
2017-11-18T08:47:55.421Z,63.25
2017-11-18T08:49:32.170Z,63.26
2017-11-18T08:51:08.927Z,63.28
2017-11-18T08:52:45.491Z,63.29
2017-11-18T08:54:22.470Z,63.25
2017-11-18T08:55:59.119Z,63.25
2017-11-18T08:57:35.556Z,63.25
2017-11-18T08:59:11.975Z,63.24
2017-11-18T09:00:48.638Z,63.24
2017-11-18T09:02:25.806Z,63.23
2017-11-18T09:04:02.176Z,63.24
2017-11-18T09:05:38.780Z,63.21
2017-11-18T09:07:15.461Z,63.21
2017-11-18T09:08:51.848Z,63.20
2017-11-18T09:10:28.426Z,63.20
2017-11-18T09:12:04.747Z,63.21
2017-11-18T09:13:41.759Z,63.21
2017-11-18T09:15:19.009Z,63.24
2017-11-18T09:16:55.518Z,63.24
2017-11-18T09:18:32.021Z,63.26
2017-11-18T09:20:08.582Z,63.25
2017-11-18T09:21:44.871Z,63.28
2017-11-18T09:23:21.913Z,63.26
2017-11-18T09:24:58.165Z,63.27
2017-11-18T09:26:34.745Z,63.26
2017-11-18T09:28:10.983Z,63.26
2017-11-18T09:29:47.331Z,63.28
2017-11-18T09:31:23.893Z,63.27
2017-11-18T09:33:00.641Z,63.28
2017-11-18T09:34:38.031Z,63.27
2017-11-18T09:36:14.656Z,63.28
2017-11-18T09:37:51.121Z,63.27
2017-11-18T09:39:27.720Z,63.26
2017-11-18T09:41:04.209Z,63.24
2017-11-18T09:42:40.556Z,63.24
2017-11-18T09:44:17.599Z,63.25
2017-11-18T09:45:54.720Z,63.22
2017-11-18T09:47:31.071Z,63.22
2017-11-18T09:49:14.455Z,63.22
2017-11-18T09:50:54.345Z,63.20
2017-11-18T09:52:31.001Z,63.18
2017-11-18T09:54:07.983Z,63.16
2017-11-18T09:55:45.070Z,63.17
2017-11-18T09:57:22.592Z,63.15
2017-11-18T09:58:58.800Z,63.15
2017-11-18T10:00:35.092Z,63.11
2017-11-18T10:02:12.050Z,63.08
2017-11-18T10:03:52.593Z,63.10
2017-11-18T10:05:36.175Z,63.11
2017-11-18T10:07:13.009Z,63.09
2017-11-18T10:08:50.616Z,63.11
2017-11-18T10:10:27.012Z,63.13
2017-11-18T10:12:03.913Z,63.14
2017-11-18T10:13:40.681Z,63.14
2017-11-18T10:15:18.504Z,63.14
2017-11-18T10:16:55.821Z,63.13
2017-11-18T10:18:32.658Z,63.12
2017-11-18T10:20:09.143Z,63.09
2017-11-18T10:21:45.760Z,63.07
2017-11-18T10:23:22.099Z,63.07
2017-11-18T10:24:59.132Z,63.08
2017-11-18T10:26:35.464Z,63.09
2017-11-18T10:28:11.834Z,63.10
2017-11-18T10:29:48.240Z,63.10
2017-11-18T10:31:25.211Z,63.09
2017-11-18T10:33:01.714Z,63.10
2017-11-18T10:34:41.168Z,63.11
2017-11-18T10:36:19.371Z,63.11
2017-11-18T10:37:56.557Z,63.09
2017-11-18T10:39:33.016Z,63.11
2017-11-18T10:41:09.599Z,63.11
2017-11-18T10:42:45.839Z,63.10
2017-11-18T10:44:22.139Z,63.10
2017-11-18T10:45:58.995Z,63.05
2017-11-18T10:47:35.220Z,63.02
2017-11-18T10:49:11.537Z,62.97
2017-11-18T10:50:48.404Z,62.96
2017-11-18T10:52:26.010Z,62.96
2017-11-18T10:54:02.819Z,62.98
2017-11-18T10:55:39.333Z,62.98
2017-11-18T10:57:15.867Z,63.00
2017-11-18T10:58:54.216Z,63.01
2017-11-18T11:00:37.715Z,62.99
2017-11-18T11:02:16.124Z,62.97
2017-11-18T11:03:54.422Z,62.98
2017-11-18T11:05:32.723Z,62.98
2017-11-18T11:07:09.145Z,62.99
2017-11-18T11:08:46.319Z,62.98
2017-11-18T11:10:24.132Z,62.98
2017-11-18T11:12:00.454Z,62.98
2017-11-18T11:13:37.097Z,62.97
2017-11-18T11:15:15.831Z,62.94
2017-11-18T11:16:52.899Z,62.93
2017-11-18T11:18:29.182Z,62.96
2017-11-18T11:20:05.721Z,62.95
2017-11-18T11:21:42.096Z,62.94
2017-11-18T11:23:19.191Z,62.95
2017-11-18T11:24:56.697Z,62.93
2017-11-18T11:26:33.374Z,62.93
2017-11-18T11:28:10.274Z,62.95
2017-11-18T11:29:46.988Z,62.95
2017-11-18T11:31:23.676Z,62.97
2017-11-18T11:33:00.160Z,62.96
2017-11-18T11:34:37.309Z,62.93
2017-11-18T11:36:14.025Z,62.95
2017-11-18T11:37:50.602Z,62.97
2017-11-18T11:39:27.257Z,62.99
2017-11-18T11:41:04.082Z,63.01
2017-11-18T11:42:41.424Z,62.96
2017-11-18T11:44:18.272Z,62.90
2017-11-18T11:45:55.370Z,62.89
2017-11-18T11:47:32.157Z,62.89
2017-11-18T11:49:09.338Z,62.89
2017-11-18T11:50:45.851Z,62.92
2017-11-18T11:52:22.461Z,62.93
2017-11-18T11:53:59.836Z,62.93
2017-11-18T11:55:36.889Z,62.94
2017-11-18T11:57:13.879Z,62.92
2017-11-18T11:58:50.549Z,62.90
2017-11-18T12:00:30.510Z,62.91
2017-11-18T12:02:07.440Z,62.91
2017-11-18T12:03:44.089Z,62.91
2017-11-18T12:05:25.630Z,62.89
2017-11-18T12:07:02.328Z,62.89
2017-11-18T12:08:39.888Z,62.88
2017-11-18T12:10:23.765Z,62.88
2017-11-18T12:12:00.706Z,62.88
2017-11-18T12:13:37.449Z,62.88
2017-11-18T12:15:16.000Z,62.88
2017-11-18T12:16:52.920Z,62.89
2017-11-18T12:18:29.447Z,62.89
2017-11-18T12:20:05.850Z,62.89
2017-11-18T12:21:43.104Z,62.86
2017-11-18T12:23:20.152Z,62.85
2017-11-18T12:24:56.573Z,62.86
2017-11-18T12:26:33.288Z,62.85
2017-11-18T12:28:10.121Z,62.85
2017-11-18T12:29:47.492Z,62.85
2017-11-18T12:31:24.125Z,62.85
2017-11-18T12:33:01.008Z,62.83
2017-11-18T12:34:38.054Z,62.81
2017-11-18T12:36:14.729Z,62.81
2017-11-18T12:37:51.547Z,62.82
2017-11-18T12:39:28.894Z,62.79
2017-11-18T12:41:05.879Z,62.80
2017-11-18T12:42:43.492Z,62.81
2017-11-18T12:44:19.991Z,62.80
2017-11-18T12:45:57.131Z,62.79
2017-11-18T12:47:33.738Z,62.79
2017-11-18T12:49:11.081Z,62.81
2017-11-18T12:50:48.410Z,62.79
2017-11-18T12:52:25.577Z,62.78
2017-11-18T12:54:02.934Z,62.79
2017-11-18T12:55:39.532Z,62.81
2017-11-18T12:57:16.088Z,62.80
2017-11-18T12:58:52.699Z,62.79
2017-11-18T13:00:29.742Z,62.78
2017-11-18T13:02:06.424Z,62.79
2017-11-18T13:03:43.834Z,62.79
2017-11-18T13:05:20.275Z,62.80
2017-11-18T13:06:56.975Z,62.82
2017-11-18T13:08:36.569Z,62.80
2017-11-18T13:10:13.730Z,62.80
2017-11-18T13:11:49.934Z,62.75
2017-11-18T13:13:27.868Z,62.73
2017-11-18T13:15:04.198Z,62.74
2017-11-18T13:16:41.655Z,62.74
2017-11-18T13:18:17.944Z,62.74
2017-11-18T13:19:54.571Z,62.70
2017-11-18T13:21:30.770Z,62.70
2017-11-18T13:23:08.902Z,62.69
2017-11-18T13:24:46.165Z,62.69
2017-11-18T13:26:22.814Z,62.69
2017-11-18T13:27:59.223Z,62.70
2017-11-18T13:29:36.312Z,62.69
2017-11-18T13:31:12.853Z,62.68
2017-11-18T13:32:50.763Z,62.66
2017-11-18T13:34:27.416Z,62.63
2017-11-18T13:36:04.012Z,62.60
2017-11-18T13:37:40.938Z,62.60
2017-11-18T13:39:18.316Z,62.61
2017-11-18T13:40:54.949Z,62.60
2017-11-18T13:42:32.064Z,62.63
2017-11-18T13:44:14.500Z,62.61
2017-11-18T13:45:51.781Z,62.59
2017-11-18T13:47:30.639Z,62.61
2017-11-18T13:49:07.279Z,62.60
2017-11-18T13:50:44.988Z,62.60
2017-11-18T13:52:23.998Z,62.61
2017-11-18T13:54:00.454Z,62.59
2017-11-18T13:55:37.236Z,62.59
2017-11-18T13:57:13.768Z,62.59
2017-11-18T13:58:50.917Z,62.56
2017-11-18T14:00:34.364Z,62.54
2017-11-18T14:02:11.594Z,62.54
2017-11-18T14:03:48.737Z,62.52
2017-11-18T14:05:25.529Z,62.51
2017-11-18T14:07:01.892Z,62.50
2017-11-18T14:08:39.428Z,62.49
2017-11-18T14:10:16.726Z,62.48
2017-11-18T14:11:54.570Z,62.48
2017-11-18T14:13:36.588Z,62.47
2017-11-18T14:15:15.472Z,62.47
2017-11-18T14:16:53.114Z,62.46
2017-11-18T14:18:29.495Z,62.45
2017-11-18T14:20:06.052Z,62.43
2017-11-18T14:21:43.556Z,62.44
2017-11-18T14:23:20.475Z,62.44
2017-11-18T14:24:59.059Z,62.46
2017-11-18T14:26:35.651Z,62.47
2017-11-18T14:28:16.916Z,62.42
2017-11-18T14:29:54.821Z,62.39
2017-11-18T14:31:31.651Z,62.37
2017-11-18T14:33:09.169Z,62.39
2017-11-18T14:34:46.916Z,62.38
2017-11-18T14:36:23.723Z,62.35
2017-11-18T14:38:00.663Z,62.31
2017-11-18T14:39:38.049Z,62.30
2017-11-18T14:41:14.773Z,62.29
2017-11-18T14:42:51.821Z,62.28
2017-11-18T14:44:28.214Z,62.27
2017-11-18T14:46:04.921Z,62.26
2017-11-18T14:47:41.441Z,62.26
2017-11-18T14:49:18.420Z,62.26
2017-11-18T14:50:54.935Z,62.24
2017-11-18T14:52:31.528Z,62.24
2017-11-18T14:54:08.928Z,62.25
2017-11-18T14:55:46.094Z,62.21
2017-11-18T14:57:22.924Z,62.20
2017-11-18T14:58:59.785Z,62.20
2017-11-18T15:00:36.646Z,62.20
2017-11-18T15:02:13.798Z,62.19
2017-11-18T15:03:51.366Z,62.20
2017-11-18T15:05:27.938Z,62.19
2017-11-18T15:07:04.514Z,62.20
2017-11-18T15:08:41.714Z,62.19
2017-11-18T15:10:18.983Z,62.21
2017-11-18T15:11:56.832Z,62.20
2017-11-18T15:13:34.279Z,62.18
2017-11-18T15:15:11.333Z,62.19
2017-11-18T15:16:52.199Z,62.20
2017-11-18T15:18:33.152Z,62.18
2017-11-18T15:20:13.844Z,62.18
2017-11-18T15:21:55.117Z,62.17
2017-11-18T15:23:35.784Z,62.18
2017-11-18T15:25:16.595Z,62.22
2017-11-18T15:26:57.196Z,62.16
2017-11-18T15:28:38.968Z,62.16
2017-11-18T15:30:17.317Z,62.17
2017-11-18T15:31:54.521Z,62.18
2017-11-18T15:33:32.198Z,62.17
2017-11-18T15:35:10.071Z,62.14
2017-11-18T15:36:47.074Z,62.12
2017-11-18T15:38:24.404Z,62.10
2017-11-18T15:40:02.222Z,62.09
2017-11-18T15:41:39.996Z,62.08
2017-11-18T15:43:17.402Z,62.05
2017-11-18T15:44:55.598Z,62.04
2017-11-18T15:46:33.038Z,62.02
2017-11-18T15:48:11.778Z,62.02
2017-11-18T15:49:52.463Z,62.02
2017-11-18T15:51:30.251Z,62.01
2017-11-18T15:53:10.851Z,62.01
2017-11-18T15:54:48.036Z,62.02
2017-11-18T15:56:27.522Z,61.99
2017-11-18T15:58:05.439Z,62.00
2017-11-18T15:59:42.526Z,62.01
2017-11-18T16:01:25.090Z,62.02
2017-11-18T16:03:02.535Z,62.01
2017-11-18T16:04:39.890Z,62.00
2017-11-18T16:06:20.021Z,62.02
2017-11-18T16:07:57.552Z,62.01
2017-11-18T16:09:38.917Z,62.00
2017-11-18T16:11:18.017Z,61.99
2017-11-18T16:12:54.851Z,61.99
2017-11-18T16:14:32.059Z,61.99
2017-11-18T16:16:09.359Z,61.97
2017-11-18T16:17:48.509Z,61.98
2017-11-18T16:19:25.186Z,61.95
2017-11-18T16:21:02.294Z,61.95
2017-11-18T16:22:39.375Z,61.97
2017-11-18T16:24:16.084Z,61.95
2017-11-18T16:25:53.794Z,61.95
2017-11-18T16:27:32.364Z,61.94
2017-11-18T16:29:08.869Z,61.92
2017-11-18T16:30:46.471Z,61.89
2017-11-18T16:32:23.156Z,61.87
2017-11-18T16:34:00.462Z,61.88
2017-11-18T16:35:39.854Z,61.88
2017-11-18T16:37:16.346Z,61.90
2017-11-18T16:38:53.418Z,61.93
2017-11-18T16:40:30.369Z,61.93
2017-11-18T16:42:06.945Z,61.92
2017-11-18T16:43:43.560Z,61.89
2017-11-18T16:45:21.334Z,61.85
2017-11-18T16:46:58.820Z,61.83
2017-11-18T16:48:35.794Z,61.81
2017-11-18T16:50:14.774Z,61.81
2017-11-18T16:51:52.253Z,61.85
2017-11-18T16:53:29.994Z,61.86
2017-11-18T16:55:06.505Z,61.87
2017-11-18T16:56:43.465Z,61.88
2017-11-18T16:58:19.986Z,61.90
2017-11-18T16:59:56.755Z,61.92
2017-11-18T17:01:33.729Z,61.94
2017-11-18T17:03:10.372Z,61.92
2017-11-18T17:04:48.455Z,61.89
2017-11-18T17:06:27.481Z,61.90
2017-11-18T17:08:17.925Z,61.88
2017-11-18T17:09:57.563Z,61.89
2017-11-18T17:11:35.861Z,61.90
2017-11-18T17:13:14.681Z,61.89
2017-11-18T17:14:51.557Z,61.90
2017-11-18T17:16:28.869Z,61.90
2017-11-18T17:18:05.475Z,61.91
2017-11-18T17:21:22.896Z,61.94
2017-11-18T17:22:59.532Z,61.93
2017-11-18T17:24:36.322Z,61.95
2017-11-18T17:26:16.199Z,61.94
2017-11-18T17:27:53.298Z,61.93
2017-11-18T17:29:30.089Z,61.93
2017-11-18T17:31:06.756Z,61.93
2017-11-18T17:32:44.261Z,61.93
2017-11-18T17:34:21.165Z,61.95
2017-11-18T17:35:57.727Z,61.95
2017-11-18T17:37:35.148Z,61.95
2017-11-18T17:39:12.019Z,61.96
2017-11-18T17:40:48.917Z,61.98
2017-11-18T17:42:26.603Z,61.98
2017-11-18T17:44:03.230Z,61.96
2017-11-18T17:45:39.956Z,61.96
2017-11-18T17:47:16.915Z,61.96
2017-11-18T17:48:56.485Z,61.98
2017-11-18T17:50:35.785Z,61.99
2017-11-18T17:52:14.782Z,62.00
2017-11-18T17:53:52.210Z,62.02
2017-11-18T17:55:28.855Z,62.01
2017-11-18T17:57:05.557Z,62.01
2017-11-18T17:58:42.934Z,61.98
2017-11-18T18:00:21.232Z,61.99
2017-11-18T18:01:58.149Z,62.00
2017-11-18T18:03:35.662Z,61.99
2017-11-18T18:05:12.302Z,62.00
2017-11-18T18:06:49.718Z,61.99
2017-11-18T18:08:27.967Z,61.97
2017-11-18T18:10:05.262Z,61.96
2017-11-18T18:11:43.767Z,61.97
2017-11-18T18:13:20.372Z,61.95
2017-11-18T18:14:57.781Z,61.94
2017-11-18T18:16:35.497Z,61.91
2017-11-18T18:18:12.293Z,61.90
2017-11-18T18:19:48.683Z,61.90
2017-11-18T18:21:27.630Z,61.89
2017-11-18T18:23:04.275Z,61.89
2017-11-18T18:24:47.075Z,61.91
2017-11-18T18:26:24.361Z,61.93
2017-11-18T18:28:00.663Z,61.94
2017-11-18T18:29:37.410Z,61.93
2017-11-18T18:31:15.936Z,61.92
2017-11-18T18:32:52.495Z,61.91
2017-11-18T18:34:28.850Z,61.91
2017-11-18T18:36:05.372Z,61.91
2017-11-18T18:37:42.234Z,61.91
2017-11-18T18:39:19.573Z,61.92
2017-11-18T18:40:59.975Z,61.90
2017-11-18T18:42:37.302Z,61.85
2017-11-18T18:44:15.158Z,61.83
2017-11-18T18:45:51.976Z,61.83
2017-11-18T18:47:29.028Z,61.82
2017-11-18T18:49:10.441Z,61.79
2017-11-18T18:50:48.092Z,61.79
2017-11-18T18:52:24.994Z,61.79
2017-11-18T18:54:01.355Z,61.81
2017-11-18T18:55:39.413Z,61.83
2017-11-18T18:57:16.661Z,61.86
2017-11-18T18:58:54.180Z,61.88
2017-11-18T19:00:31.657Z,61.90
2017-11-18T19:02:09.422Z,61.93
2017-11-18T19:03:47.146Z,61.93
2017-11-18T19:05:23.728Z,61.96
2017-11-18T19:07:00.490Z,61.97
2017-11-18T19:08:37.021Z,61.98
2017-11-18T19:10:13.914Z,61.99
2017-11-18T19:11:51.300Z,61.98
2017-11-18T19:13:34.626Z,61.96
2017-11-18T19:15:12.257Z,61.95
2017-11-18T19:16:51.996Z,61.95
2017-11-18T19:18:28.620Z,61.96
2017-11-18T19:20:06.440Z,61.96
2017-11-18T19:21:42.865Z,61.95
2017-11-18T19:23:28.083Z,61.98
2017-11-18T19:25:04.491Z,61.98
2017-11-18T19:26:41.313Z,62.00
2017-11-18T19:28:18.975Z,62.01
2017-11-18T19:29:56.489Z,62.04
2017-11-18T19:31:35.422Z,62.06
2017-11-18T19:33:14.323Z,62.09
2017-11-18T19:34:52.034Z,62.09
2017-11-18T19:36:30.516Z,62.11
2017-11-18T19:38:11.441Z,62.12
2017-11-18T19:39:48.398Z,62.11
2017-11-18T19:41:28.463Z,62.13
2017-11-18T19:43:08.738Z,62.10
2017-11-18T19:44:49.037Z,62.09
2017-11-18T19:46:33.878Z,62.10
2017-11-18T19:48:23.326Z,62.10
2017-11-18T19:50:09.034Z,62.11
2017-11-18T19:51:57.828Z,62.13
2017-11-18T19:53:48.016Z,62.16
2017-11-18T19:55:28.933Z,62.18
2017-11-18T19:57:11.198Z,62.20
2017-11-18T19:58:57.132Z,62.21
2017-11-18T20:00:38.952Z,62.24
2017-11-18T20:02:19.517Z,62.26
2017-11-18T20:04:02.512Z,62.31
2017-11-18T20:05:44.492Z,62.33
2017-11-18T20:07:23.886Z,62.36
2017-11-18T20:09:01.365Z,62.40
2017-11-18T20:10:41.016Z,62.41
2017-11-18T20:12:34.512Z,62.43
2017-11-18T20:14:37.266Z,62.43
2017-11-18T20:16:22.881Z,62.44
2017-11-18T20:18:05.806Z,62.45
2017-11-18T20:20:07.691Z,62.48
2017-11-18T20:21:47.128Z,62.51
2017-11-18T20:23:26.073Z,62.52
2017-11-18T20:25:18.745Z,62.54
2017-11-18T20:27:08.528Z,62.55
2017-11-18T20:28:51.737Z,62.57
2017-11-18T20:30:34.697Z,62.58
2017-11-18T20:33:59.627Z,62.61
2017-11-18T20:35:37.989Z,62.62
2017-11-18T20:37:17.597Z,62.63
2017-11-18T20:39:02.286Z,62.64
2017-11-18T20:40:43.104Z,62.67
2017-11-18T20:42:25.289Z,62.69
2017-11-18T20:44:04.230Z,62.70
2017-11-18T20:45:42.194Z,62.71
2017-11-18T20:47:20.235Z,62.73
2017-11-18T20:48:59.221Z,62.69
2017-11-18T20:50:37.355Z,62.75
2017-11-18T20:52:14.983Z,62.74
2017-11-18T20:53:56.311Z,62.75
2017-11-18T20:55:35.440Z,62.77
2017-11-18T20:57:12.511Z,62.76
2017-11-18T20:58:50.038Z,62.78
2017-11-18T21:00:32.033Z,62.78
2017-11-18T21:02:12.472Z,62.78
2017-11-18T21:03:50.377Z,62.79
2017-11-18T21:05:27.804Z,62.78
2017-11-18T21:07:07.966Z,62.80
2017-11-18T21:08:46.969Z,62.79
2017-11-18T21:10:24.153Z,62.81
2017-11-18T21:12:00.469Z,62.84